createdAt,value
2022-09-28T00:00:00.405Z,68.10
2022-09-28T00:02:28.715Z,67.90
2022-09-28T00:04:56.861Z,67.90
2022-09-28T00:07:24.942Z,67.90
2022-09-28T00:09:54.384Z,68.20
2022-09-28T00:12:22.679Z,68.70
2022-09-28T00:14:51.318Z,69.40
2022-09-28T00:17:22.230Z,69.30
2022-09-28T00:19:50.369Z,69.50
2022-09-28T00:22:18.408Z,69.20
2022-09-28T00:24:46.755Z,69.80
2022-09-28T00:27:16.162Z,70.00
2022-09-28T00:29:44.280Z,70.10
2022-09-28T00:32:13.465Z,70.10
2022-09-28T00:34:46.035Z,70.60
2022-09-28T00:37:14.615Z,71.60
2022-09-28T00:39:43.533Z,71.50
2022-09-28T00:42:13.637Z,71.70
2022-09-28T00:44:45.589Z,72.60
2022-09-28T00:47:33.022Z,73.00
2022-09-28T00:50:02.562Z,72.80
2022-09-28T00:52:32.653Z,73.00
2022-09-28T00:55:01.259Z,72.90
2022-09-28T00:57:29.408Z,73.10
2022-09-28T00:59:59.362Z,73.80
2022-09-28T01:02:27.428Z,73.60
2022-09-28T01:04:58.017Z,72.70
2022-09-28T01:07:26.526Z,73.20
2022-09-28T01:09:56.376Z,73.20
2022-09-28T01:12:24.397Z,75.10
2022-09-28T01:14:52.452Z,74.60
2022-09-28T01:17:24.641Z,75.40
2022-09-28T01:20:22.732Z,75.00
2022-09-28T01:23:23.174Z,75.00
2022-09-28T01:25:54.329Z,75.50
2022-09-28T01:28:25.006Z,75.70
2022-09-28T01:30:58.214Z,74.80
2022-09-28T01:33:28.073Z,74.00
2022-09-28T01:35:58.318Z,76.00
2022-09-28T01:38:27.990Z,75.30
2022-09-28T01:40:56.057Z,74.70
2022-09-28T01:43:26.519Z,74.60
2022-09-28T01:45:55.767Z,74.70
2022-09-28T01:48:25.452Z,74.80
2022-09-28T01:50:56.215Z,74.60
2022-09-28T01:53:26.200Z,74.10
2022-09-28T01:55:56.015Z,74.60
2022-09-28T01:58:27.313Z,74.60
2022-09-28T02:00:58.724Z,74.50
2022-09-28T02:03:29.174Z,75.00
2022-09-28T02:05:59.149Z,74.60
2022-09-28T02:08:29.659Z,75.30
2022-09-28T02:11:01.626Z,76.70
2022-09-28T02:13:32.513Z,76.80
2022-09-28T02:16:02.943Z,78.20
2022-09-28T02:18:31.008Z,78.00
2022-09-28T02:21:01.832Z,78.70
2022-09-28T02:23:30.227Z,78.60
2022-09-28T02:26:02.282Z,78.20
2022-09-28T02:28:31.692Z,77.30
2022-09-28T02:30:59.738Z,77.60
2022-09-28T02:33:31.171Z,76.80
2022-09-28T02:35:59.440Z,78.70
2022-09-28T02:38:27.674Z,79.10
2022-09-28T02:40:59.063Z,78.10
2022-09-28T02:43:31.142Z,77.10
2022-09-28T02:46:06.567Z,76.70
2022-09-28T02:48:55.860Z,76.70
2022-09-28T02:51:31.905Z,76.00
2022-09-28T02:54:18.938Z,75.80
2022-09-28T02:57:00.449Z,76.00
2022-09-28T02:59:36.487Z,76.20
2022-09-28T03:02:07.473Z,76.00
2022-09-28T03:04:38.496Z,76.40
2022-09-28T03:07:08.455Z,77.40
2022-09-28T03:09:38.969Z,77.90
2022-09-28T03:12:08.969Z,78.10
2022-09-28T03:14:37.116Z,77.30
2022-09-28T03:17:06.505Z,77.10
2022-09-28T03:19:36.811Z,76.70
2022-09-28T03:22:05.706Z,76.40
2022-09-28T03:24:33.801Z,76.10
2022-09-28T03:27:01.865Z,76.60
2022-09-28T03:29:31.481Z,75.50
2022-09-28T03:31:59.581Z,75.00
2022-09-28T03:34:29.375Z,75.00
2022-09-28T03:36:57.397Z,74.40
2022-09-28T03:39:25.801Z,74.70
2022-09-28T03:41:53.834Z,74.70
2022-09-28T03:44:22.179Z,74.90
2022-09-28T03:46:50.528Z,75.70
2022-09-28T03:49:18.674Z,76.00
2022-09-28T03:51:48.129Z,75.70
2022-09-28T03:54:16.196Z,76.40
2022-09-28T03:56:44.247Z,77.00
2022-09-28T03:59:12.295Z,76.40
2022-09-28T04:01:40.464Z,75.40
2022-09-28T04:04:08.593Z,75.70
2022-09-28T04:06:36.613Z,76.40
2022-09-28T04:09:06.056Z,75.80
2022-09-28T04:11:42.986Z,75.60
2022-09-28T04:14:21.245Z,75.50
2022-09-28T04:16:49.328Z,75.70
2022-09-28T04:19:17.499Z,75.60
2022-09-28T04:21:45.634Z,76.10
2022-09-28T04:24:15.368Z,75.80
2022-09-28T04:26:43.451Z,76.20
2022-09-28T04:29:16.848Z,76.30
2022-09-28T04:31:46.662Z,75.20
2022-09-28T04:34:15.046Z,75.50
2022-09-28T04:36:43.090Z,75.30
2022-09-28T04:39:11.500Z,75.20
2022-09-28T04:41:40.897Z,74.80
2022-09-28T04:44:09.146Z,75.00
2022-09-28T04:46:37.166Z,75.40
2022-09-28T04:49:05.234Z,74.90
2022-09-28T04:51:33.309Z,75.00
2022-09-28T04:54:01.365Z,75.40
2022-09-28T04:56:29.437Z,75.80
2022-09-28T04:58:58.948Z,75.10
2022-09-28T05:01:27.069Z,75.20
2022-09-28T05:03:55.700Z,75.30
2022-09-28T05:06:28.000Z,74.90
2022-09-28T05:08:57.412Z,75.40
2022-09-28T05:11:25.428Z,75.80
2022-09-28T05:13:53.469Z,75.70
2022-09-28T05:16:22.926Z,75.40
2022-09-28T05:18:51.030Z,75.10
2022-09-28T05:21:20.143Z,75.20
2022-09-28T05:23:48.328Z,75.50
2022-09-28T05:26:16.385Z,75.70
2022-09-28T05:28:44.736Z,75.20
2022-09-28T05:31:12.828Z,75.60
2022-09-28T05:33:42.266Z,75.60
2022-09-28T05:36:10.383Z,75.10
2022-09-28T05:38:38.510Z,74.80
2022-09-28T05:41:07.039Z,74.90
2022-09-28T05:43:35.187Z,75.30
2022-09-28T05:46:03.351Z,75.60
2022-09-28T05:48:31.540Z,75.50
2022-09-28T05:51:00.957Z,75.50
2022-09-28T05:53:29.045Z,75.30
2022-09-28T05:55:59.345Z,74.90
2022-09-28T05:58:27.379Z,75.00
2022-09-28T06:00:55.832Z,75.70
2022-09-28T06:03:23.969Z,75.60
2022-09-28T06:05:52.034Z,76.00
2022-09-28T06:08:21.434Z,75.90
2022-09-28T06:10:49.692Z,76.30
2022-09-28T06:13:17.811Z,76.20
2022-09-28T06:15:47.854Z,76.20
2022-09-28T06:18:15.977Z,75.90
2022-09-28T06:20:44.702Z,75.90
2022-09-28T06:23:13.251Z,75.70
2022-09-28T06:25:42.781Z,75.20
2022-09-28T06:28:11.724Z,75.20
2022-09-28T06:30:39.959Z,75.00
2022-09-28T06:33:09.277Z,75.10
2022-09-28T06:35:37.780Z,74.80
2022-09-28T06:38:05.809Z,75.20
2022-09-28T06:40:34.283Z,74.80
2022-09-28T06:43:06.698Z,75.20
2022-09-28T06:45:34.762Z,75.10
2022-09-28T06:48:03.230Z,74.70
2022-09-28T06:50:32.346Z,74.20
2022-09-28T06:53:00.729Z,73.80
2022-09-28T06:55:29.143Z,73.60
2022-09-28T06:58:00.283Z,74.00
2022-09-28T07:00:31.280Z,73.80
2022-09-28T07:02:59.376Z,73.30
2022-09-28T07:05:28.981Z,74.00
2022-09-28T07:07:57.195Z,73.60
2022-09-28T07:10:25.595Z,72.80
2022-09-28T07:12:53.743Z,73.30
2022-09-28T07:15:22.019Z,73.40
2022-09-28T07:18:01.166Z,73.60
2022-09-28T07:20:31.370Z,73.90
2022-09-28T07:23:11.511Z,73.40
2022-09-28T07:25:47.799Z,72.70
2022-09-28T07:28:16.017Z,69.50
2022-09-28T07:30:44.742Z,67.70
2022-09-28T07:33:16.004Z,64.60
2022-09-28T07:35:50.928Z,63.60
2022-09-28T07:38:19.674Z,65.10
2022-09-28T07:41:27.327Z,63.80
2022-09-28T07:44:11.426Z,66.70
2022-09-28T07:46:39.606Z,68.00
2022-09-28T07:49:29.665Z,68.30
2022-09-28T07:52:21.502Z,68.40
2022-09-28T07:55:17.645Z,69.10
2022-09-28T07:57:52.261Z,68.30
2022-09-28T08:00:48.546Z,66.50
2022-09-28T08:03:19.769Z,67.90
2022-09-28T08:05:49.882Z,67.80
2022-09-28T08:08:18.605Z,68.30
2022-09-28T08:10:47.570Z,65.50
2022-09-28T08:13:16.449Z,63.50
2022-09-28T08:15:45.139Z,63.00
2022-09-28T08:18:13.171Z,62.40
2022-09-28T08:20:58.775Z,64.60
2022-09-28T08:23:28.253Z,66.70
2022-09-28T08:25:56.358Z,65.20
2022-09-28T08:28:24.706Z,64.50
2022-09-28T08:30:52.813Z,64.10
2022-09-28T08:33:21.499Z,62.00
2022-09-28T08:35:49.766Z,61.70
2022-09-28T08:38:18.437Z,63.30
2022-09-28T08:40:50.649Z,63.90
2022-09-28T08:43:33.241Z,61.60
2022-09-28T08:46:01.369Z,61.70
2022-09-28T08:49:06.625Z,63.00
2022-09-28T08:51:37.127Z,62.60
2022-09-28T08:54:09.455Z,61.50
2022-09-28T08:56:46.002Z,64.10
2022-09-28T08:59:15.147Z,62.30
2022-09-28T09:01:45.746Z,63.40
2022-09-28T09:04:13.961Z,63.60
2022-09-28T09:06:51.577Z,65.40
2022-09-28T09:09:22.663Z,66.70
2022-09-28T09:11:58.903Z,64.80
2022-09-28T09:15:06.995Z,66.00
2022-09-28T09:17:40.914Z,65.80
2022-09-28T09:20:16.569Z,66.20
2022-09-28T09:22:51.297Z,63.10
2022-09-28T09:25:21.379Z,64.70
2022-09-28T09:27:59.247Z,64.90
2022-09-28T09:30:30.095Z,64.40
2022-09-28T09:33:28.992Z,60.80
2022-09-28T09:36:09.534Z,60.50
2022-09-28T09:38:43.165Z,60.60
2022-09-28T09:41:17.530Z,57.30
2022-09-28T09:44:11.846Z,54.60
2022-09-28T09:46:41.602Z,53.50
2022-09-28T09:49:12.343Z,55.60
2022-09-28T09:51:43.599Z,56.30
2022-09-28T09:54:16.193Z,56.80
2022-09-28T09:56:46.764Z,54.80
2022-09-28T09:59:18.991Z,58.20
2022-09-28T10:01:47.490Z,58.90
2022-09-28T10:04:19.268Z,57.80
2022-09-28T10:06:47.503Z,57.40
2022-09-28T10:09:18.033Z,59.70
2022-09-28T10:11:46.857Z,58.20
2022-09-28T10:14:17.533Z,59.30
2022-09-28T10:16:45.798Z,57.60
2022-09-28T10:19:14.031Z,58.90
2022-09-28T10:21:42.271Z,57.50
2022-09-28T10:24:13.261Z,58.20
2022-09-28T10:26:41.903Z,57.70
2022-09-28T10:29:14.737Z,57.80
2022-09-28T10:31:45.360Z,58.00
2022-09-28T10:34:15.251Z,56.80
2022-09-28T10:36:48.791Z,57.90
2022-09-28T10:39:30.162Z,58.60
2022-09-28T10:41:59.887Z,59.20
2022-09-28T10:44:28.468Z,59.60
2022-09-28T10:47:02.436Z,58.70
2022-09-28T10:49:31.111Z,58.50
2022-09-28T10:51:59.182Z,57.00
2022-09-28T10:54:28.341Z,58.10
2022-09-28T10:56:57.051Z,56.30
2022-09-28T10:59:37.492Z,59.70
2022-09-28T11:02:19.755Z,59.50
2022-09-28T11:04:52.142Z,58.50
2022-09-28T11:07:20.889Z,59.20
2022-09-28T11:09:49.688Z,60.00
2022-09-28T11:12:19.830Z,59.90
2022-09-28T11:14:52.687Z,59.80
2022-09-28T11:17:29.046Z,59.10
2022-09-28T11:19:57.501Z,59.70
2022-09-28T11:22:29.018Z,60.10
2022-09-28T11:25:15.289Z,60.10
2022-09-28T11:27:43.422Z,59.30
2022-09-28T11:30:23.793Z,57.20
2022-09-28T11:32:54.078Z,55.90
2022-09-28T11:35:23.572Z,56.50
2022-09-28T11:38:01.008Z,56.00
2022-09-28T11:40:33.376Z,57.30
2022-09-28T11:43:08.232Z,58.10
2022-09-28T11:45:46.793Z,57.60
2022-09-28T11:48:16.725Z,59.70
2022-09-28T11:50:47.908Z,62.00
2022-09-28T11:53:20.667Z,61.30
2022-09-28T11:55:50.597Z,61.60
2022-09-28T11:58:23.150Z,62.40
2022-09-28T12:00:51.984Z,64.00
2022-09-28T12:03:22.956Z,63.30
2022-09-28T12:05:52.754Z,62.70
2022-09-28T12:08:25.322Z,61.40
2022-09-28T12:10:57.158Z,62.40
2022-09-28T12:13:27.501Z,61.30
2022-09-28T12:16:38.450Z,61.70
2022-09-28T12:18:50.380Z,61.40
2022-09-28T12:21:37.812Z,61.90
2022-09-28T12:24:11.628Z,60.70
2022-09-28T12:26:43.239Z,61.80
2022-09-28T12:29:13.260Z,63.80
2022-09-28T12:31:48.334Z,62.70
2022-09-28T12:34:18.061Z,63.00
2022-09-28T12:36:50.746Z,61.60
2022-09-28T12:39:56.369Z,62.20
2022-09-28T12:42:32.745Z,61.70
2022-09-28T12:45:08.964Z,61.70
2022-09-28T12:48:12.621Z,61.20
2022-09-28T12:50:54.516Z,61.30
2022-09-28T12:53:34.317Z,61.90
2022-09-28T12:56:03.586Z,60.90
2022-09-28T12:58:56.043Z,60.70
2022-09-28T13:01:32.721Z,59.50
2022-09-28T13:04:10.349Z,59.30
2022-09-28T13:06:49.238Z,59.50
2022-09-28T13:09:21.874Z,59.40
2022-09-28T13:11:56.057Z,60.20
2022-09-28T13:14:37.019Z,59.60
2022-09-28T13:17:06.672Z,59.20
2022-09-28T13:19:37.580Z,59.30
2022-09-28T13:22:13.328Z,58.00
2022-09-28T13:24:44.525Z,58.80
2022-09-28T13:27:16.002Z,58.10
2022-09-28T13:29:44.187Z,58.70
2022-09-28T13:32:12.910Z,58.80
2022-09-28T13:34:41.033Z,58.60
2022-09-28T13:37:21.912Z,58.20
2022-09-28T13:39:56.575Z,57.00
2022-09-28T13:42:51.782Z,57.30
2022-09-28T13:45:51.776Z,55.90
2022-09-28T13:48:21.085Z,56.20
2022-09-28T13:51:06.149Z,55.10
2022-09-28T13:53:42.433Z,55.70
2022-09-28T13:56:20.924Z,55.20
2022-09-28T13:58:49.871Z,52.50
2022-09-28T14:01:19.047Z,54.50
2022-09-28T14:03:55.473Z,52.80
2022-09-28T14:06:25.510Z,54.00
2022-09-28T14:09:30.113Z,53.70
2022-09-28T14:12:01.147Z,53.30
2022-09-28T14:14:48.902Z,52.80
2022-09-28T14:17:53.228Z,52.80
2022-09-28T14:20:26.339Z,52.90
2022-09-28T14:23:21.846Z,53.30
2022-09-28T14:26:04.732Z,54.00
2022-09-28T14:28:40.634Z,55.70
2022-09-28T14:31:08.877Z,57.10
2022-09-28T14:33:39.288Z,57.40
2022-09-28T14:36:08.094Z,57.90
2022-09-28T14:38:54.814Z,57.80
2022-09-28T14:41:33.851Z,56.50
2022-09-28T14:44:04.222Z,56.80
2022-09-28T14:46:36.982Z,56.70
2022-09-28T14:49:06.510Z,57.40
2022-09-28T14:52:11.091Z,56.50
2022-09-28T14:54:49.255Z,56.30
2022-09-28T14:57:20.568Z,56.30
2022-09-28T14:59:48.636Z,55.60
2022-09-28T15:02:23.385Z,56.80
2022-09-28T15:04:53.353Z,56.30
2022-09-28T15:07:23.091Z,56.00
2022-09-28T15:09:51.957Z,56.20
2022-09-28T15:12:22.580Z,56.60
2022-09-28T15:14:52.706Z,56.90
2022-09-28T15:17:22.429Z,56.60
2022-09-28T15:20:08.903Z,57.00
2022-09-28T15:22:37.145Z,56.60
2022-09-28T15:25:14.142Z,56.00
2022-09-28T15:27:43.675Z,56.40
2022-09-28T15:30:24.596Z,57.30
2022-09-28T15:32:54.692Z,56.30
2022-09-28T15:35:23.786Z,56.50
2022-09-28T15:37:52.834Z,56.10
2022-09-28T15:40:25.619Z,57.00
2022-09-28T15:42:59.981Z,56.30
2022-09-28T15:45:33.620Z,56.50
2022-09-28T15:48:19.282Z,56.70
2022-09-28T15:51:12.187Z,56.80
2022-09-28T15:53:44.465Z,57.00
2022-09-28T15:56:12.582Z,57.20
2022-09-28T15:58:42.234Z,56.60
2022-09-28T16:01:32.145Z,56.80
2022-09-28T16:04:02.005Z,57.20
2022-09-28T16:06:30.178Z,57.40
2022-09-28T16:08:59.596Z,56.80
2022-09-28T16:11:28.445Z,57.50
2022-09-28T16:14:01.856Z,58.60
2022-09-28T16:16:32.236Z,56.90
2022-09-28T16:19:01.774Z,57.40
2022-09-28T16:21:42.012Z,55.80
2022-09-28T16:24:22.002Z,57.30
2022-09-28T16:26:51.891Z,55.50
2022-09-28T16:29:40.132Z,56.10
2022-09-28T16:32:33.469Z,55.50
2022-09-28T16:35:15.861Z,56.00
2022-09-28T16:37:43.897Z,55.90
2022-09-28T16:40:11.985Z,56.70
2022-09-28T16:42:40.120Z,55.90
2022-09-28T16:45:12.691Z,56.40
2022-09-28T16:47:40.723Z,58.50
2022-09-28T16:50:11.330Z,58.30
2022-09-28T16:52:59.820Z,58.40
2022-09-28T16:55:39.999Z,58.80
2022-09-28T16:58:09.108Z,59.60
2022-09-28T17:00:38.634Z,59.60
2022-09-28T17:03:15.483Z,60.20
2022-09-28T17:05:43.700Z,60.80
2022-09-28T17:08:13.611Z,61.20
2022-09-28T17:11:09.387Z,61.40
2022-09-28T17:13:33.347Z,58.60
2022-09-28T17:16:04.436Z,58.60
2022-09-28T17:18:32.970Z,58.70
2022-09-28T17:21:03.297Z,58.90
2022-09-28T17:23:31.598Z,58.80
2022-09-28T17:26:00.340Z,58.80
2022-09-28T17:28:29.438Z,58.90
2022-09-28T17:30:57.557Z,58.30
2022-09-28T17:33:27.330Z,59.00
2022-09-28T17:35:59.095Z,59.90
2022-09-28T17:38:27.438Z,60.60
2022-09-28T17:40:55.655Z,60.30
2022-09-28T17:43:23.831Z,61.20
2022-09-28T17:45:52.557Z,61.70
2022-09-28T17:48:24.338Z,60.80
2022-09-28T17:50:53.785Z,61.60
2022-09-28T17:53:21.852Z,61.30
2022-09-28T17:55:50.229Z,61.40
2022-09-28T17:58:19.344Z,61.20
2022-09-28T18:00:47.765Z,62.00
2022-09-28T18:03:18.249Z,61.30
2022-09-28T18:05:46.725Z,61.80
2022-09-28T18:08:18.867Z,61.50
2022-09-28T18:10:47.418Z,60.60
2022-09-28T18:13:15.520Z,61.80
2022-09-28T18:15:43.749Z,61.10
2022-09-28T18:18:12.979Z,60.70
2022-09-28T18:20:42.029Z,59.80
2022-09-28T18:23:10.105Z,60.50
2022-09-28T18:25:41.887Z,60.20
2022-09-28T18:28:09.961Z,60.30
2022-09-28T18:30:39.966Z,60.10
2022-09-28T18:33:08.080Z,61.40
2022-09-28T18:35:36.112Z,62.70
2022-09-28T18:38:05.231Z,62.50
2022-09-28T18:40:33.392Z,62.60
2022-09-28T18:43:02.856Z,62.40
2022-09-28T18:45:31.218Z,62.10
2022-09-28T18:47:59.687Z,63.00
2022-09-28T18:50:27.752Z,63.60
2022-09-28T18:53:11.366Z,62.60
2022-09-28T18:55:40.358Z,62.30
2022-09-28T18:58:10.526Z,63.10
2022-09-28T19:00:39.121Z,63.30
2022-09-28T19:03:07.438Z,63.10
2022-09-28T19:05:35.672Z,63.30
2022-09-28T19:08:04.096Z,63.30
2022-09-28T19:10:32.198Z,63.80
2022-09-28T19:13:00.598Z,63.70
2022-09-28T19:15:30.152Z,63.90
2022-09-28T19:17:58.282Z,64.30
2022-09-28T19:20:26.423Z,63.40
2022-09-28T19:22:54.495Z,63.60
2022-09-28T19:25:22.588Z,64.60
2022-09-28T19:27:50.630Z,65.20
2022-09-28T19:30:18.830Z,65.20
2022-09-28T19:32:48.266Z,64.40
2022-09-28T19:35:16.500Z,62.70
2022-09-28T19:37:46.721Z,63.00
2022-09-28T19:40:14.951Z,61.40
2022-09-28T19:42:43.018Z,59.90
2022-09-28T19:45:11.466Z,59.40
2022-09-28T19:47:39.572Z,58.50
2022-09-28T19:50:10.279Z,58.60
2022-09-28T19:52:38.350Z,60.20
2022-09-28T19:55:07.299Z,61.00
2022-09-28T19:57:35.370Z,62.80
2022-09-28T20:00:04.084Z,62.80
2022-09-28T20:02:32.338Z,63.30
2022-09-28T20:05:00.468Z,65.00
2022-09-28T20:07:32.979Z,64.60
2022-09-28T20:10:01.303Z,64.60
2022-09-28T20:12:29.375Z,64.70
2022-09-28T20:14:57.942Z,64.70
2022-09-28T20:17:26.059Z,64.50
2022-09-28T20:19:56.349Z,64.70
2022-09-28T20:22:24.517Z,65.60
2022-09-28T20:24:53.972Z,65.00
2022-09-28T20:27:26.217Z,64.80
2022-09-28T20:29:54.749Z,65.20
2022-09-28T20:32:22.809Z,64.90
2022-09-28T20:34:50.940Z,66.30
2022-09-28T20:37:19.396Z,65.50
2022-09-28T20:39:47.494Z,66.00
2022-09-28T20:42:16.929Z,65.70
2022-09-28T20:44:45.004Z,66.20
2022-09-28T20:47:13.080Z,66.50
2022-09-28T20:49:41.607Z,66.60
2022-09-28T20:52:09.657Z,66.30
2022-09-28T20:54:38.125Z,65.60
2022-09-28T20:57:17.353Z,66.30
2022-09-28T20:59:49.801Z,65.90
2022-09-28T21:02:21.861Z,66.50
2022-09-28T21:04:49.952Z,66.40
2022-09-28T21:07:18.030Z,66.20
2022-09-28T21:09:46.108Z,66.20
2022-09-28T21:12:15.410Z,66.20
2022-09-28T21:14:43.545Z,66.60
2022-09-28T21:17:13.007Z,67.20
2022-09-28T21:19:41.109Z,67.40
2022-09-28T21:22:09.184Z,66.90
2022-09-28T21:24:37.275Z,66.60
2022-09-28T21:27:05.444Z,67.00
2022-09-28T21:29:33.537Z,66.60
2022-09-28T21:32:01.744Z,66.70
2022-09-28T21:34:31.220Z,66.50
2022-09-28T21:36:59.251Z,67.20
2022-09-28T21:39:27.371Z,67.80
2022-09-28T21:41:55.429Z,67.40
2022-09-28T21:44:23.597Z,67.10
2022-09-28T21:46:51.655Z,67.80
2022-09-28T21:49:19.757Z,68.30
2022-09-28T21:51:49.191Z,68.00
2022-09-28T21:54:17.356Z,67.50
2022-09-28T21:56:45.417Z,68.30
2022-09-28T21:59:13.492Z,68.70
2022-09-28T22:01:42.892Z,69.00
2022-09-28T22:04:11.216Z,68.10
2022-09-28T22:06:39.805Z,68.30
2022-09-28T22:09:09.402Z,68.30
2022-09-28T22:11:37.465Z,68.30
2022-09-28T22:14:05.608Z,69.10
2022-09-28T22:16:33.647Z,69.10
2022-09-28T22:19:01.783Z,68.40
2022-09-28T22:21:30.477Z,68.10
2022-09-28T22:24:01.029Z,68.10
2022-09-28T22:26:31.868Z,67.80
2022-09-28T22:29:00.768Z,67.60
2022-09-28T22:31:29.540Z,67.70
2022-09-28T22:33:57.735Z,67.50
2022-09-28T22:36:26.033Z,67.80
2022-09-28T22:38:54.877Z,67.50
2022-09-28T22:41:23.062Z,68.00
2022-09-28T22:43:53.771Z,67.40
2022-09-28T22:46:23.023Z,67.50
2022-09-28T22:48:52.704Z,66.80
2022-09-28T22:51:21.111Z,66.10
2022-09-28T22:53:49.190Z,66.00
2022-09-28T22:56:18.905Z,66.70
2022-09-28T22:58:47.438Z,67.20
2022-09-28T23:01:18.573Z,68.20
2022-09-28T23:03:46.803Z,67.60
2022-09-28T23:06:16.600Z,67.40
2022-09-28T23:08:44.831Z,65.90
2022-09-28T23:11:12.922Z,68.00
2022-09-28T23:13:41.009Z,69.00
2022-09-28T23:16:09.950Z,68.60
2022-09-28T23:18:40.897Z,68.00
2022-09-28T23:21:11.096Z,67.60
2022-09-28T23:23:39.296Z,68.00
2022-09-28T23:26:12.056Z,68.30
2022-09-28T23:28:40.130Z,67.90
2022-09-28T23:31:12.073Z,67.90
2022-09-28T23:33:41.572Z,66.90
2022-09-28T23:36:09.957Z,66.90
2022-09-28T23:38:38.060Z,68.60
2022-09-28T23:41:06.197Z,68.70
2022-09-28T23:43:34.552Z,68.90
2022-09-28T23:46:02.759Z,68.50
2022-09-28T23:48:31.022Z,69.00
2022-09-28T23:51:00.443Z,68.90
2022-09-28T23:53:28.623Z,69.10
2022-09-28T23:55:56.754Z,69.30
2022-09-28T23:58:25.833Z,68.80
